createdAt,value
2018-01-27T00:02:01.719Z,61.60
2018-01-27T00:04:29.385Z,61.50
2018-01-27T00:06:57.253Z,61.40
2018-01-27T00:09:24.805Z,61.50
2018-01-27T00:11:52.441Z,61.40
2018-01-27T00:14:20.963Z,61.60
2018-01-27T00:16:49.535Z,61.60
2018-01-27T00:19:17.158Z,61.40
2018-01-27T00:21:44.806Z,61.60
2018-01-27T00:24:13.726Z,61.60
2018-01-27T00:26:42.114Z,61.60
2018-01-27T00:29:09.711Z,61.50
2018-01-27T00:31:37.434Z,61.40
2018-01-27T00:34:06.103Z,61.40
2018-01-27T00:36:34.666Z,61.40
2018-01-27T00:39:02.254Z,61.20
2018-01-27T00:41:29.837Z,61.40
2018-01-27T00:43:57.439Z,61.30
2018-01-27T00:48:59.722Z,61.30
2018-01-27T00:51:27.292Z,61.50
2018-01-27T00:53:55.566Z,61.30
2018-01-27T00:56:23.161Z,61.30
2018-01-27T00:58:50.762Z,61.40
2018-01-27T01:01:19.096Z,61.60
2018-01-27T01:03:46.704Z,61.50
2018-01-27T01:08:48.351Z,61.60
2018-01-27T01:11:15.922Z,61.60
2018-01-27T01:13:43.521Z,61.60
2018-01-27T01:16:11.861Z,61.50
2018-01-27T01:18:40.178Z,61.60
2018-01-27T01:21:07.761Z,61.50
2018-01-27T01:23:35.334Z,61.50
2018-01-27T01:26:02.896Z,61.50
2018-01-27T01:28:30.501Z,61.30
2018-01-27T01:30:58.093Z,61.00
2018-01-27T01:33:26.457Z,60.80
2018-01-27T01:35:54.023Z,60.60
2018-01-27T01:38:21.608Z,60.40
2018-01-27T01:40:49.200Z,60.20
2018-01-27T01:43:22.513Z,60.40
2018-01-27T01:45:50.861Z,60.60
2018-01-27T01:48:18.438Z,60.50
2018-01-27T01:50:46.002Z,60.60
2018-01-27T01:53:13.582Z,60.70
2018-01-27T01:55:41.197Z,60.80
2018-01-27T01:58:08.769Z,61.00
2018-01-27T02:00:36.444Z,61.00
2018-01-27T02:03:04.864Z,61.10
2018-01-27T02:05:32.454Z,61.00
2018-01-27T02:08:00.017Z,60.90
2018-01-27T02:10:27.598Z,60.90
2018-01-27T02:12:55.223Z,60.90
2018-01-27T02:15:22.828Z,61.80
2018-01-27T02:17:50.384Z,61.10
2018-01-27T02:20:17.973Z,61.20
2018-01-27T02:22:45.543Z,61.30
2018-01-27T02:25:13.122Z,61.30
2018-01-27T02:27:40.720Z,61.40
2018-01-27T02:30:08.388Z,61.30
2018-01-27T02:32:35.989Z,61.20
2018-01-27T02:35:03.601Z,61.20
2018-01-27T02:37:31.192Z,61.10
2018-01-27T02:39:58.795Z,61.00
2018-01-27T02:42:26.366Z,61.00
2018-01-27T02:44:54.919Z,60.90
2018-01-27T02:47:23.028Z,61.00
2018-01-27T02:49:50.614Z,61.00
2018-01-27T02:52:18.192Z,61.20
2018-01-27T02:54:45.790Z,61.40
2018-01-27T02:57:14.183Z,62.00
2018-01-27T02:59:42.533Z,61.80
2018-01-27T03:02:10.113Z,61.70
2018-01-27T03:04:37.802Z,61.70
2018-01-27T03:07:05.366Z,61.60
2018-01-27T03:09:33.712Z,61.80
2018-01-27T03:12:01.340Z,61.60
2018-01-27T03:14:28.945Z,61.80
2018-01-27T03:16:56.542Z,61.70
2018-01-27T03:19:24.149Z,61.60
2018-01-27T03:21:51.719Z,61.40
2018-01-27T03:24:19.324Z,61.30
2018-01-27T03:26:47.651Z,61.10
2018-01-27T03:29:15.278Z,61.00
2018-01-27T03:31:42.838Z,61.00
2018-01-27T03:34:11.202Z,60.80
2018-01-27T03:36:38.939Z,60.80
2018-01-27T03:39:06.538Z,60.80
2018-01-27T03:41:34.110Z,60.70
2018-01-27T03:44:01.706Z,60.70
2018-01-27T03:46:29.290Z,60.40
2018-01-27T03:48:56.877Z,60.40
2018-01-27T03:51:25.210Z,60.40
2018-01-27T03:53:52.827Z,60.20
2018-01-27T03:56:20.398Z,60.30
2018-01-27T03:58:47.972Z,60.20
2018-01-27T04:01:15.542Z,60.40
2018-01-27T04:03:43.126Z,60.20
2018-01-27T04:08:45.431Z,59.70
2018-01-27T04:11:13.014Z,59.70
2018-01-27T04:13:41.343Z,59.60
2018-01-27T04:16:09.212Z,59.50
2018-01-27T04:18:36.776Z,59.50
2018-01-27T04:21:04.385Z,59.60
2018-01-27T04:23:31.956Z,59.50
2018-01-27T04:25:59.543Z,59.40
2018-01-27T04:28:27.096Z,59.40
2018-01-27T04:30:54.674Z,59.30
2018-01-27T04:33:22.286Z,59.50
2018-01-27T04:35:50.607Z,59.80
2018-01-27T04:38:18.172Z,59.80
2018-01-27T04:40:45.763Z,59.70
2018-01-27T04:43:13.333Z,59.70
2018-01-27T04:45:40.904Z,59.60
2018-01-27T04:48:08.500Z,59.40
2018-01-27T04:50:36.070Z,60.00
2018-01-27T04:53:03.700Z,59.40
2018-01-27T04:55:31.265Z,59.50
2018-01-27T04:57:58.930Z,59.70
2018-01-27T05:00:27.268Z,59.80
2018-01-27T05:02:54.861Z,59.70
2018-01-27T05:05:22.419Z,59.80
2018-01-27T05:07:50.771Z,59.80
2018-01-27T05:10:18.343Z,59.60
2018-01-27T05:12:45.938Z,59.60
2018-01-27T05:15:13.498Z,59.40
2018-01-27T05:17:41.086Z,59.40
2018-01-27T05:20:08.665Z,59.40
2018-01-27T05:22:36.251Z,59.50
2018-01-27T05:25:03.806Z,59.70
2018-01-27T05:27:31.394Z,59.80
2018-01-27T05:29:59.735Z,59.60
2018-01-27T05:32:27.331Z,59.50
2018-01-27T05:34:54.947Z,59.50
2018-01-27T05:37:23.354Z,59.50
2018-01-27T05:39:51.687Z,59.30
2018-01-27T05:42:19.246Z,59.20
2018-01-27T05:44:46.843Z,59.50
2018-01-27T05:47:14.411Z,59.70
2018-01-27T05:49:42.006Z,59.90
2018-01-27T05:52:09.598Z,60.10
2018-01-27T05:54:39.163Z,60.30
2018-01-27T05:57:06.746Z,60.20
2018-01-27T05:59:34.341Z,60.10
2018-01-27T06:02:01.974Z,60.20
2018-01-27T06:04:29.627Z,60.30
2018-01-27T06:06:57.952Z,60.30
2018-01-27T06:09:25.543Z,60.20
2018-01-27T06:11:53.145Z,60.20
2018-01-27T06:14:21.516Z,60.30
2018-01-27T06:16:50.260Z,60.30
2018-01-27T06:19:17.861Z,60.20
2018-01-27T06:21:45.448Z,60.10
2018-01-27T06:24:13.081Z,60.00
2018-01-27T06:26:40.638Z,59.90
2018-01-27T06:29:08.248Z,59.60
2018-01-27T06:31:35.828Z,59.20
2018-01-27T06:34:03.419Z,59.30
2018-01-27T06:36:31.026Z,59.40
2018-01-27T06:38:59.391Z,60.00
2018-01-27T06:41:27.022Z,59.90
2018-01-27T06:43:54.625Z,60.10
2018-01-27T06:46:22.199Z,60.00
2018-01-27T06:48:49.822Z,60.30
2018-01-27T06:51:17.405Z,60.40
2018-01-27T06:53:45.008Z,60.40
2018-01-27T06:56:12.609Z,60.30
2018-01-27T06:58:40.370Z,60.40
2018-01-27T07:01:07.954Z,60.40
2018-01-27T07:03:36.304Z,60.30
2018-01-27T07:06:03.938Z,61.10
2018-01-27T07:08:31.526Z,60.20
2018-01-27T07:10:59.689Z,60.20
2018-01-27T07:13:28.765Z,60.40
2018-01-27T07:15:56.398Z,60.30
2018-01-27T07:18:24.023Z,60.30
2018-01-27T07:20:51.685Z,60.30
2018-01-27T07:23:20.526Z,60.30
2018-01-27T07:25:48.881Z,60.30
2018-01-27T07:28:16.463Z,60.10
2018-01-27T07:30:44.106Z,60.30
2018-01-27T07:33:11.720Z,60.30
2018-01-27T07:35:40.947Z,60.20
2018-01-27T07:38:09.309Z,60.50
2018-01-27T07:40:36.968Z,60.40
2018-01-27T07:43:04.555Z,60.50
2018-01-27T07:45:32.260Z,60.40
2018-01-27T07:47:59.900Z,60.30
2018-01-27T07:50:27.578Z,60.20
2018-01-27T07:52:55.178Z,60.20
2018-01-27T07:55:22.868Z,60.20
2018-01-27T07:57:50.514Z,60.30
2018-01-27T08:00:18.863Z,60.10
2018-01-27T08:02:46.535Z,60.00
2018-01-27T08:05:14.875Z,60.40
2018-01-27T08:07:43.236Z,60.70
2018-01-27T08:10:12.141Z,60.50
2018-01-27T08:12:40.168Z,60.50
2018-01-27T08:17:41.806Z,60.40
2018-01-27T08:20:09.412Z,60.30
2018-01-27T08:22:36.990Z,60.10
2018-01-27T08:25:05.356Z,60.40
2018-01-27T08:27:34.035Z,60.10
2018-01-27T08:30:01.614Z,60.60
2018-01-27T08:32:30.562Z,60.70
2018-01-27T08:34:58.255Z,60.80
2018-01-27T08:37:25.967Z,61.20
2018-01-27T08:39:54.843Z,61.20
2018-01-27T08:42:23.103Z,61.40
2018-01-27T08:44:50.716Z,61.50
2018-01-27T08:47:18.326Z,61.60
2018-01-27T08:49:45.904Z,61.70
2018-01-27T08:52:14.687Z,61.60
2018-01-27T08:54:43.255Z,61.60
2018-01-27T08:57:10.827Z,61.60
2018-01-27T08:59:38.901Z,61.50
2018-01-27T09:02:07.559Z,61.60
2018-01-27T09:04:35.971Z,61.40
2018-01-27T09:07:05.123Z,61.40
2018-01-27T09:09:32.738Z,61.60
2018-01-27T09:12:01.071Z,61.40
2018-01-27T09:14:29.481Z,61.60
2018-01-27T09:16:57.069Z,61.40
2018-01-27T09:19:25.480Z,61.50
2018-01-27T09:21:54.977Z,61.80
2018-01-27T09:24:22.630Z,61.60
2018-01-27T09:26:50.234Z,62.00
2018-01-27T09:29:17.838Z,62.00
2018-01-27T09:31:45.456Z,61.90
2018-01-27T09:34:13.008Z,61.80
2018-01-27T09:36:41.635Z,61.60
2018-01-27T09:39:09.213Z,61.90
2018-01-27T09:41:37.674Z,62.10
2018-01-27T09:44:06.553Z,62.20
2018-01-27T09:46:34.817Z,62.30
2018-01-27T09:49:03.623Z,62.50
2018-01-27T09:51:32.130Z,62.20
2018-01-27T09:54:00.262Z,62.00
2018-01-27T09:56:28.156Z,62.20
2018-01-27T09:58:55.791Z,62.30
2018-01-27T10:01:24.164Z,62.70
2018-01-27T10:03:52.370Z,62.60
2018-01-27T10:06:19.984Z,63.00
2018-01-27T10:08:47.635Z,63.30
2018-01-27T10:11:15.930Z,63.30
2018-01-27T10:17:40.002Z,63.50
2018-01-27T10:20:07.660Z,63.40
2018-01-27T10:22:35.297Z,63.50
2018-01-27T10:25:03.798Z,63.40
2018-01-27T10:27:31.389Z,63.30
2018-01-27T10:29:59.090Z,63.30
2018-01-27T10:32:27.289Z,63.00
2018-01-27T10:34:55.697Z,62.60
2018-01-27T10:37:23.368Z,62.70
2018-01-27T10:39:50.955Z,62.70
2018-01-27T10:42:19.287Z,62.80
2018-01-27T10:44:46.880Z,62.70
2018-01-27T10:47:14.520Z,62.70
2018-01-27T10:49:42.103Z,62.70
2018-01-27T10:52:09.783Z,62.80
2018-01-27T10:54:38.731Z,62.80
2018-01-27T10:57:06.393Z,63.00
2018-01-27T10:59:35.591Z,63.20
2018-01-27T11:02:05.939Z,63.10
2018-01-27T11:04:33.659Z,63.50
2018-01-27T11:07:02.967Z,63.70
2018-01-27T11:09:32.361Z,63.10
2018-01-27T11:11:59.947Z,63.50
2018-01-27T11:14:29.995Z,63.70
2018-01-27T11:16:58.376Z,63.70
2018-01-27T11:19:27.245Z,63.60
2018-01-27T11:21:54.855Z,63.50
2018-01-27T11:24:23.000Z,63.70
2018-01-27T11:26:50.640Z,63.90
2018-01-27T11:29:18.272Z,64.00
2018-01-27T11:31:46.723Z,64.00
2018-01-27T11:34:14.758Z,64.00
2018-01-27T11:36:42.395Z,64.00
2018-01-27T11:39:10.588Z,64.30
2018-01-27T11:41:38.511Z,64.20
2018-01-27T11:44:06.706Z,64.30
2018-01-27T11:46:35.050Z,64.30
2018-01-27T11:49:02.663Z,64.20
2018-01-27T11:51:31.074Z,64.10
2018-01-27T11:53:58.790Z,64.00
2018-01-27T11:56:26.423Z,63.70
2018-01-27T11:58:55.053Z,63.50
2018-01-27T12:01:25.768Z,63.30
2018-01-27T12:03:53.624Z,63.30
2018-01-27T12:06:21.243Z,62.90
2018-01-27T12:08:49.734Z,63.30
2018-01-27T12:11:17.419Z,63.50
2018-01-27T12:13:45.062Z,63.40
2018-01-27T12:16:12.968Z,63.50
2018-01-27T12:18:41.368Z,63.30
2018-01-27T12:21:09.018Z,63.20
2018-01-27T12:23:37.678Z,63.10
2018-01-27T12:26:06.031Z,62.50
2018-01-27T12:28:33.628Z,62.40
2018-01-27T12:31:02.492Z,62.90
2018-01-27T12:33:31.157Z,62.70
2018-01-27T12:35:59.515Z,62.80
2018-01-27T12:38:27.657Z,62.80
2018-01-27T12:40:55.878Z,62.50
2018-01-27T12:43:24.953Z,62.60
2018-01-27T12:45:52.631Z,62.70
2018-01-27T12:48:21.067Z,62.20
2018-01-27T12:50:49.759Z,62.10
2018-01-27T12:53:17.484Z,61.70
2018-01-27T12:55:47.239Z,62.30
2018-01-27T12:58:14.933Z,62.20
2018-01-27T13:00:43.294Z,61.70
2018-01-27T13:03:12.400Z,61.70
2018-01-27T13:05:39.986Z,61.60
2018-01-27T13:08:08.385Z,61.50
2018-01-27T13:10:36.767Z,61.60
2018-01-27T13:13:05.142Z,62.20
2018-01-27T13:15:32.766Z,61.60
2018-01-27T13:18:00.352Z,61.50
2018-01-27T13:20:28.593Z,61.60
2018-01-27T13:22:56.210Z,61.60
2018-01-27T13:25:23.817Z,61.50
2018-01-27T13:27:51.408Z,61.70
2018-01-27T13:30:19.064Z,61.80
2018-01-27T13:32:46.681Z,61.60
2018-01-27T13:35:14.284Z,61.40
2018-01-27T13:37:43.227Z,61.40
2018-01-27T13:40:10.922Z,61.40
2018-01-27T13:42:40.166Z,61.60
2018-01-27T13:45:08.513Z,61.40
2018-01-27T13:47:37.651Z,61.10
2018-01-27T13:50:05.732Z,60.90
2018-01-27T13:52:33.449Z,61.10
2018-01-27T13:55:01.052Z,60.90
2018-01-27T13:57:28.705Z,60.80
2018-01-27T13:59:57.043Z,60.60
2018-01-27T14:02:24.768Z,60.60
2018-01-27T14:04:54.951Z,60.70
2018-01-27T14:07:24.191Z,60.90
2018-01-27T14:09:52.800Z,61.20
2018-01-27T14:12:22.008Z,61.00
2018-01-27T14:14:51.505Z,61.20
2018-01-27T14:17:19.191Z,61.00
2018-01-27T14:19:47.322Z,60.80
2018-01-27T14:22:16.714Z,60.90
2018-01-27T14:24:46.792Z,60.70
2018-01-27T14:27:14.749Z,60.60
2018-01-27T14:29:42.560Z,60.60
2018-01-27T14:32:10.308Z,60.40
2018-01-27T14:34:39.656Z,60.60
2018-01-27T14:37:07.292Z,60.40
2018-01-27T14:39:35.658Z,60.40
2018-01-27T14:42:03.299Z,60.20
2018-01-27T14:44:30.989Z,60.30
2018-01-27T14:47:00.538Z,61.30
2018-01-27T14:49:29.834Z,60.60
2018-01-27T14:51:58.787Z,60.50
2018-01-27T14:54:27.038Z,60.50
2018-01-27T14:56:56.196Z,60.90
2018-01-27T14:59:23.795Z,60.70
2018-01-27T15:01:51.405Z,60.60
2018-01-27T15:04:19.752Z,60.70
2018-01-27T15:06:48.373Z,60.60
2018-01-27T15:09:16.103Z,60.60
2018-01-27T15:11:43.829Z,60.40
2018-01-27T15:14:11.428Z,60.50
2018-01-27T15:16:41.038Z,61.10
2018-01-27T15:19:08.767Z,60.60
2018-01-27T15:21:36.350Z,60.30
2018-01-27T15:24:03.953Z,60.60
2018-01-27T15:26:31.586Z,60.70
2018-01-27T15:28:59.240Z,60.80
2018-01-27T15:31:27.845Z,61.00
2018-01-27T15:33:56.503Z,61.00
2018-01-27T15:36:24.588Z,61.00
2018-01-27T15:38:52.829Z,61.00
2018-01-27T15:41:20.473Z,62.10
2018-01-27T15:43:48.888Z,61.60
2018-01-27T15:46:16.826Z,61.40
2018-01-27T15:48:45.209Z,61.60
2018-01-27T15:54:11.767Z,62.00
2018-01-27T15:56:40.361Z,61.80
2018-01-27T15:59:07.937Z,62.00
2018-01-27T16:01:36.405Z,62.20
2018-01-27T16:04:04.011Z,62.20
2018-01-27T16:06:31.619Z,62.20
2018-01-27T16:08:59.256Z,63.50
2018-01-27T16:11:27.924Z,62.20
2018-01-27T16:13:55.551Z,62.20
2018-01-27T16:16:23.904Z,62.00
2018-01-27T16:18:52.018Z,62.70
2018-01-27T16:21:20.492Z,62.90
2018-01-27T16:23:48.902Z,61.90
2018-01-27T16:26:16.525Z,61.80
2018-01-27T16:28:44.144Z,61.80
2018-01-27T16:31:11.742Z,61.50
2018-01-27T16:33:40.164Z,61.80
2018-01-27T16:36:07.799Z,61.60
2018-01-27T16:41:33.095Z,62.00
2018-01-27T16:44:00.735Z,61.90
2018-01-27T16:46:28.318Z,62.10
2018-01-27T16:48:56.117Z,62.00
2018-01-27T16:51:24.503Z,62.00
2018-01-27T16:53:52.102Z,62.00
2018-01-27T16:56:19.791Z,62.00
2018-01-27T16:58:47.406Z,62.00
2018-01-27T17:01:14.962Z,62.10
2018-01-27T17:03:42.630Z,62.20
2018-01-27T17:06:11.189Z,62.20
2018-01-27T17:08:39.005Z,62.30
2018-01-27T17:11:06.617Z,62.20
2018-01-27T17:13:34.260Z,62.40
2018-01-27T17:16:01.897Z,62.50
2018-01-27T17:18:30.268Z,62.70
2018-01-27T17:20:57.845Z,62.60
2018-01-27T17:23:26.209Z,62.80
2018-01-27T17:25:53.828Z,62.80
2018-01-27T17:28:22.654Z,62.90
2018-01-27T17:30:53.368Z,63.00
2018-01-27T17:33:21.512Z,63.10
2018-01-27T17:35:51.105Z,62.90
2018-01-27T17:38:20.860Z,63.30
2018-01-27T17:40:49.669Z,63.50
2018-01-27T17:43:20.772Z,63.50
2018-01-27T17:45:48.929Z,63.50
2018-01-27T17:48:19.426Z,63.70
2018-01-27T17:50:48.632Z,63.90
2018-01-27T17:53:17.715Z,63.90
2018-01-27T17:55:45.892Z,64.00
2018-01-27T17:58:15.445Z,64.20
2018-01-27T18:00:44.761Z,64.30
2018-01-27T18:03:13.027Z,64.40
2018-01-27T18:05:42.344Z,65.30
2018-01-27T18:08:12.214Z,64.50
2018-01-27T18:10:41.319Z,64.60
2018-01-27T18:13:11.222Z,64.50
2018-01-27T18:15:42.117Z,64.60
2018-01-27T18:18:12.456Z,64.50
2018-01-27T18:20:40.847Z,64.60
2018-01-27T18:23:11.711Z,64.60
2018-01-27T18:25:41.920Z,64.90
2018-01-27T18:28:10.895Z,64.60
2018-01-27T18:30:39.345Z,64.60
2018-01-27T18:33:07.606Z,64.20
2018-01-27T18:35:35.846Z,64.20
2018-01-27T18:38:07.979Z,64.10
2018-01-27T18:40:37.490Z,64.30
2018-01-27T18:43:06.392Z,64.20
2018-01-27T19:10:41.223Z,60.10
2018-01-27T19:13:08.860Z,61.50
2018-01-27T19:15:36.474Z,62.70
2018-01-27T19:18:05.540Z,63.40
2018-01-27T19:20:33.107Z,63.30
2018-01-27T19:23:01.239Z,63.30
2018-01-27T19:25:28.840Z,62.70
2018-01-27T19:27:57.194Z,62.60
2018-01-27T19:30:24.765Z,62.50
2018-01-27T19:32:52.346Z,62.80
2018-01-27T19:35:20.402Z,62.90
2018-01-27T19:50:19.949Z,61.00
2018-01-27T19:52:48.239Z,61.20
2018-01-27T19:55:17.298Z,61.70
2018-01-27T19:57:45.692Z,62.20
2018-01-27T20:00:15.011Z,62.60
2018-01-27T20:02:43.229Z,62.70
2018-01-27T20:05:12.944Z,63.00
2018-01-27T20:07:42.447Z,63.50
2018-01-27T20:10:11.346Z,63.60
2018-01-27T20:12:39.585Z,63.60
2018-01-27T20:15:08.098Z,63.80
2018-01-27T20:17:36.752Z,63.70
2018-01-27T20:20:05.814Z,63.60
2018-01-27T20:22:34.507Z,63.70
2018-01-27T20:25:03.442Z,64.70
2018-01-27T20:27:32.046Z,63.80
2018-01-27T20:30:00.923Z,64.00
2018-01-27T20:32:29.190Z,64.40
2018-01-27T20:34:57.497Z,64.20
2018-01-27T20:37:26.940Z,64.20
2018-01-27T20:39:56.887Z,64.10
2018-01-27T20:42:25.785Z,64.40
2018-01-27T20:44:54.691Z,64.50
2018-01-27T20:47:23.985Z,64.60
2018-01-27T20:49:53.477Z,64.60
2018-01-27T20:52:22.512Z,64.40
2018-01-27T20:54:51.670Z,64.40
2018-01-27T20:57:19.674Z,64.50
2018-01-27T20:59:49.704Z,64.60
2018-01-27T21:02:21.255Z,64.50
2018-01-27T21:04:49.382Z,64.40
2018-01-27T21:07:18.555Z,64.60
2018-01-27T21:09:46.940Z,64.40
2018-01-27T21:12:15.637Z,64.40
2018-01-27T21:14:44.631Z,64.40
2018-01-27T21:17:13.557Z,64.50
2018-01-27T21:19:43.851Z,64.40
2018-01-27T21:22:12.081Z,64.40
2018-01-27T21:24:40.436Z,64.50
2018-01-27T21:27:08.356Z,64.50
2018-01-27T21:29:37.263Z,64.30
2018-01-27T21:32:05.515Z,64.10
2018-01-27T21:34:33.648Z,64.40
2018-01-27T21:37:02.916Z,64.60
2018-01-27T21:39:31.085Z,64.60
2018-01-27T21:42:00.033Z,64.60
2018-01-27T21:44:29.687Z,64.60
2018-01-27T21:46:58.705Z,64.60
2018-01-27T21:49:28.020Z,64.40
2018-01-27T21:51:56.084Z,64.60
2018-01-27T21:54:24.394Z,64.60
2018-01-27T21:56:52.507Z,64.60
2018-01-27T21:59:21.350Z,64.70
2018-01-27T22:01:50.223Z,64.60
2018-01-27T22:04:19.242Z,64.70
2018-01-27T22:06:47.600Z,64.60
2018-01-27T22:09:17.421Z,64.50
2018-01-27T22:11:45.443Z,64.70
2018-01-27T22:14:14.344Z,64.70
2018-01-27T22:16:42.403Z,64.60
2018-01-27T22:19:11.286Z,64.60
2018-01-27T22:21:41.753Z,64.60
2018-01-27T22:24:09.360Z,64.50
2018-01-27T22:29:10.989Z,64.50
2018-01-27T22:31:38.691Z,64.50
2018-01-27T22:34:06.255Z,64.60
2018-01-27T22:36:33.861Z,64.60
2018-01-27T23:22:42.370Z,64.50
2018-01-27T23:25:09.954Z,66.20
2018-01-27T23:27:37.717Z,65.90
2018-01-27T23:30:05.329Z,65.90
2018-01-27T23:32:32.948Z,65.90
2018-01-27T23:35:00.540Z,65.70
2018-01-27T23:37:28.207Z,65.50
2018-01-27T23:39:55.819Z,65.40
2018-01-27T23:42:23.400Z,65.20
2018-01-27T23:44:51.003Z,65.00
2018-01-27T23:47:18.696Z,64.90
2018-01-27T23:49:47.075Z,64.90
2018-01-27T23:52:14.630Z,64.80
2018-01-27T23:54:42.188Z,64.80
2018-01-27T23:57:09.763Z,64.70
2018-01-27T23:59:37.426Z,64.50
